Time;durP1;ratioP1;P1;durP2;ratioP2;P2;SDS_P1;SDS_P2;PMS_P1;PMS_P2;Temp;Humidity;BMP_temperature;BMP_pressure;BME280_temperature;BME280_humidity;BME280_pressure;Samples;Min_cycle;Max_cycle;Signal;HPM_P1;HPM_P2
2022/10/05 00:01:20;;;;;;;5.55;5.13;;;;;;;8.83;100.00;62909.16;4960896;29;20281;-77
2022/10/05 00:03:47;;;;;;;10.57;4.40;;;;;;;8.78;100.00;62903.47;4961485;29;20252;-77
2022/10/05 00:06:14;;;;;;;6.18;4.70;;;;;;;8.83;100.00;62911.19;4965036;29;20297;-76
2022/10/05 00:08:43;;;;;;;4.40;4.10;;;;;;;8.76;100.00;62901.41;4959687;29;20253;-79
2022/10/05 00:11:14;;;;;;;4.70;4.18;;;;;;;8.81;100.00;62907.09;4955447;29;20204;-78
2022/10/05 00:13:43;;;;;;;4.75;3.70;;;;;;;8.85;100.00;62913.25;4966641;29;20228;-78
2022/10/05 00:16:17;;;;;;;3.63;3.28;;;;;;;8.80;100.00;62905.53;4966219;29;20211;-77
2022/10/05 00:18:46;;;;;;;3.38;2.80;;;;;;;8.86;100.00;62914.28;4951191;29;20383;-77
2022/10/05 00:21:21;;;;;;;3.55;3.35;;;;;;;8.91;100.00;62916.91;4963240;29;20212;-77
2022/10/05 00:23:49;;;;;;;3.58;2.95;;;;;;;8.88;100.00;62911.78;4967833;29;20235;-78
2022/10/05 00:26:22;;;;;;;5.68;3.38;;;;;;;8.97;100.00;62925.66;4968033;28;20205;-78
2022/10/05 00:28:55;;;;;;;3.67;3.28;;;;;;;8.98;100.00;62922.13;4967215;29;20232;-79
2022/10/05 00:31:25;;;;;;;3.03;2.80;;;;;;;9.04;100.00;62928.31;4971811;29;20225;-80
2022/10/05 00:33:53;;;;;;;3.15;2.97;;;;;;;9.07;100.00;62936.50;4972969;28;20670;-77
2022/10/05 00:36:21;;;;;;;3.15;2.80;;;;;;;9.16;100.00;62942.75;4971763;28;20201;-78
2022/10/05 00:38:48;;;;;;;3.00;2.80;;;;;;;9.17;100.00;62946.31;4962004;28;20601;-80
2022/10/05 00:41:22;;;;;;;2.97;2.78;;;;;;;9.19;100.00;62945.84;4970629;29;20197;-79
2022/10/05 00:44:24;;;;;;;3.30;3.10;;;;;;;9.21;100.00;62947.91;4973581;28;20322;-78
2022/10/05 00:46:58;;;;;;;2.70;2.60;;;;;;;9.25;100.00;62950.03;4945741;28;20228;-79
2022/10/05 00:49:45;;;;;;;3.00;2.80;;;;;;;9.28;100.00;62955.66;4962080;29;20230;-77
2022/10/05 00:52:25;;;;;;;5.30;2.90;;;;;;;9.28;100.00;62948.03;4973214;29;20224;-78
2022/10/05 00:55:05;;;;;;;3.95;3.40;;;;;;;9.28;100.00;62952.63;4970082;29;20275;-80
2022/10/05 00:57:44;;;;;;;4.32;3.92;;;;;;;9.27;100.00;62957.16;4970788;28;20238;-80
2022/10/05 01:00:18;;;;;;;3.08;2.92;;;;;;;9.28;100.00;62955.66;4971429;29;20244;-79
2022/10/05 01:02:54;;;;;;;3.22;3.03;;;;;;;9.24;100.00;62951.00;4969551;28;20561;-78
2022/10/05 01:05:39;;;;;;;3.22;3.03;;;;;;;9.27;100.00;62951.56;4967889;29;20246;-77
2022/10/05 01:08:14;;;;;;;2.83;2.63;;;;;;;9.31;100.00;62958.78;4967292;28;20225;-76
2022/10/05 01:10:47;;;;;;;3.20;3.10;;;;;;;9.41;100.00;62971.13;4967783;29;20384;-78
2022/10/05 01:13:26;;;;;;;2.60;2.50;;;;;;;9.45;100.00;62974.75;4965695;28;20269;-78
2022/10/05 01:16:03;;;;;;;2.85;2.67;;;;;;;9.46;100.00;62978.34;4964282;29;20312;-78
2022/10/05 01:18:39;;;;;;;2.50;2.30;;;;;;;9.46;100.00;62973.25;4969200;29;20530;-79
2022/10/05 01:21:15;;;;;;;3.30;3.10;;;;;;;9.47;100.00;62977.34;4965441;29;20268;-79
2022/10/05 01:24:20;;;;;;;2.97;2.65;;;;;;;9.53;100.00;62977.94;4962396;29;20533;-80
2022/10/05 01:27:12;;;;;;;2.95;2.75;;;;;;;9.43;100.00;62973.19;4971423;29;20267;-79
2022/10/05 01:29:48;;;;;;;3.30;3.13;;;;;;;9.51;100.00;62980.97;4970716;29;20205;-79
2022/10/05 01:32:24;;;;;;;3.25;2.80;;;;;;;9.47;100.00;62974.28;4969292;28;20220;-78
2022/10/05 01:35:01;;;;;;;2.28;2.03;;;;;;;9.44;100.00;62973.72;4968977;29;20196;-77
2022/10/05 01:37:39;;;;;;;2.50;2.40;;;;;;;9.55;100.00;62985.09;4965484;28;20392;-76
2022/10/05 01:40:12;;;;;;;4.38;2.70;;;;;;;9.55;100.00;62980.00;4966946;29;20200;-77
2022/10/05 01:42:53;;;;;;;2.17;2.08;;;;;;;9.47;100.00;62977.34;4960962;28;20425;-76
2022/10/05 01:45:29;;;;;;;2.70;2.50;;;;;;;9.49;100.00;62976.84;4965758;29;20208;-77
2022/10/05 01:48:02;;;;;;;2.47;2.25;;;;;;;9.51;100.00;62978.94;4965832;29;20248;-76
2022/10/05 01:50:41;;;;;;;3.47;3.17;;;;;;;9.47;100.00;62977.34;4966267;29;20201;-78
2022/10/05 01:53:18;;;;;;;9.10;5.35;;;;;;;9.13;100.00;62939.63;4961490;29;20220;-78
2022/10/05 01:55:54;;;;;;;6.03;5.07;;;;;;;9.11;100.00;62938.09;4967028;29;20200;-77
2022/10/05 01:58:31;;;;;;;5.97;5.47;;;;;;;8.96;100.00;62920.06;4965061;29;20244;-78
2022/10/05 02:01:09;;;;;;;6.35;5.82;;;;;;;8.80;100.00;62911.13;4962873;29;20212;-77
2022/10/05 02:03:40;;;;;;;8.85;7.60;;;;;;;8.62;100.00;62884.91;4950021;29;20585;-76
2022/10/05 02:06:15;;;;;;;9.55;7.35;;;;;;;8.39;100.00;62870.78;4970504;29;20364;-80
2022/10/05 02:08:50;;;;;;;10.73;7.88;;;;;;;8.12;100.00;62841.38;4964364;29;20224;-79
2022/10/05 02:11:22;;;;;;;10.23;8.45;;;;;;;7.99;100.00;62822.88;4968881;29;20208;-80
2022/10/05 02:13:55;;;;;;;9.88;7.95;;;;;;;8.00;100.00;62820.88;4964846;28;20237;-77
2022/10/05 02:16:31;;;;;;;13.25;8.82;;;;;;;7.95;100.00;62820.78;4966233;29;20225;-77
2022/10/05 02:19:03;;;;;;;12.90;8.93;;;;;;;7.91;100.00;62816.63;4964174;29;20539;-78
2022/10/05 02:21:33;;;;;;;9.57;8.52;;;;;;;7.84;100.00;62807.38;4964509;29;20397;-77
2022/10/05 02:24:06;;;;;;;9.30;8.30;;;;;;;7.83;100.00;62803.84;4965043;29;20248;-77
2022/10/05 02:26:37;;;;;;;9.10;8.20;;;;;;;7.78;100.00;62803.72;4965965;29;20233;-78
2022/10/05 02:29:08;;;;;;;9.05;7.75;;;;;;;7.77;100.00;62800.16;4967324;29;20407;-77
2022/10/05 02:31:44;;;;;;;7.75;6.95;;;;;;;7.78;100.00;62800.69;4962091;29;20232;-78
2022/10/05 02:34:22;;;;;;;12.50;7.13;;;;;;;7.77;100.00;62799.63;4968318;29;20239;-78
2022/10/05 02:36:57;;;;;;;9.98;7.32;;;;;;;7.71;100.00;62788.38;4967271;29;20229;-79
2022/10/05 02:39:35;;;;;;;10.63;6.68;;;;;;;7.81;100.00;62804.28;4966604;29;20259;-79
2022/10/05 02:42:13;;;;;;;6.32;5.82;;;;;;;7.79;100.00;62799.19;4968750;28;20216;-78
2022/10/05 02:44:48;;;;;;;6.07;5.50;;;;;;;7.82;100.00;62807.34;4960556;29;20219;-78
2022/10/05 02:47:26;;;;;;;6.78;5.97;;;;;;;7.82;100.00;62802.78;4957555;29;20244;-78
2022/10/05 02:50:01;;;;;;;5.35;4.90;;;;;;;7.92;100.00;62817.69;4969092;28;20204;-79
2022/10/05 02:52:36;;;;;;;6.15;4.82;;;;;;;7.96;100.00;62822.31;4967262;28;20320;-80
2022/10/05 02:55:12;;;;;;;4.78;4.38;;;;;;;7.95;100.00;62821.28;4966950;29;20204;-78
2022/10/05 02:57:47;;;;;;;4.10;3.80;;;;;;;7.93;100.00;62816.16;4984344;28;20231;-78
2022/10/05 03:00:20;;;;;;;4.72;4.32;;;;;;;7.90;100.00;62813.56;4968715;29;20243;-78
2022/10/05 03:03:03;;;;;;;4.03;3.67;;;;;;;7.96;100.00;62824.84;4967152;29;20248;-79
2022/10/05 03:05:39;;;;;;;3.85;3.55;;;;;;;8.01;100.00;62824.41;4968261;29;20204;-78
2022/10/05 03:08:14;;;;;;;5.05;4.20;;;;;;;8.03;100.00;62821.94;4968868;29;20243;-78
2022/10/05 03:10:47;;;;;;;4.07;3.78;;;;;;;8.02;100.00;62828.00;4968626;29;20220;-77
2022/10/05 03:13:27;;;;;;;3.60;3.35;;;;;;;7.89;100.00;62809.50;4966982;28;20224;-80
2022/10/05 03:16:14;;;;;;;5.00;4.60;;;;;;;7.87;100.00;62807.44;4955643;29;20247;-79
2022/10/05 03:18:59;;;;;;;8.68;5.70;;;;;;;7.81;100.00;62806.84;4969284;29;20244;-78
2022/10/05 03:21:46;;;;;;;5.72;5.15;;;;;;;7.71;100.00;62796.00;4969541;29;20208;-77
2022/10/05 03:24:36;;;;;;;5.53;4.97;;;;;;;7.63;100.00;62787.72;4963255;29;20205;-79
2022/10/05 03:27:14;;;;;;;5.82;5.32;;;;;;;7.61;100.00;62781.09;4964183;28;20220;-78
2022/10/05 03:29:48;;;;;;;5.93;5.40;;;;;;;7.55;100.00;62776.94;4958886;29;20212;-78
2022/10/05 03:32:26;;;;;;;8.85;5.28;;;;;;;7.50;100.00;62769.25;4959290;28;20228;-77
2022/10/05 03:35:04;;;;;;;8.35;5.30;;;;;;;7.47;100.00;62771.22;4964112;29;20240;-78
2022/10/05 03:37:42;;;;;;;8.07;5.75;;;;;;;7.36;100.00;62757.31;4967641;29;20479;-77
2022/10/05 03:40:23;;;;;;;6.13;5.70;;;;;;;7.35;100.00;62758.84;4968021;29;20267;-79
2022/10/05 03:43:07;;;;;;;6.50;5.78;;;;;;;7.30;100.00;62748.59;4959720;28;20224;-78
2022/10/05 03:45:42;;;;;;;6.03;4.97;;;;;;;7.24;100.00;62744.94;4968090;29;20225;-78
2022/10/05 03:48:18;;;;;;;6.38;5.78;;;;;;;7.20;100.00;62746.38;4963551;28;20228;-79
2022/10/05 03:51:02;;;;;;;6.15;5.55;;;;;;;7.17;100.00;62738.25;4968535;29;20239;-79
2022/10/05 03:53:41;;;;;;;5.60;5.10;;;;;;;7.15;100.00;62731.09;4966073;28;20231;-78
2022/10/05 03:56:16;;;;;;;5.35;4.95;;;;;;;7.09;100.00;62730.00;4966803;28;20363;-79
2022/10/05 03:58:53;;;;;;;5.97;5.40;;;;;;;7.04;100.00;62724.81;4966160;29;20564;-77
2022/10/05 04:01:25;;;;;;;5.13;4.60;;;;;;;7.08;100.00;62728.94;4953271;29;20212;-77
2022/10/05 04:03:56;;;;;;;5.63;5.18;;;;;;;6.99;100.00;62720.19;4968049;29;20224;-78
2022/10/05 04:06:28;;;;;;;6.63;5.93;;;;;;;6.99;100.00;62719.66;4966558;29;20197;-76
2022/10/05 04:09:01;;;;;;;9.35;5.82;;;;;;;6.90;100.00;62712.91;4974932;29;20228;-79
2022/10/05 04:11:34;;;;;;;6.85;6.10;;;;;;;7.02;100.00;62720.25;4969739;28;20201;-81
2022/10/05 04:14:06;;;;;;;6.97;6.18;;;;;;;6.96;100.00;62714.03;4972644;29;20200;-78
2022/10/05 04:16:41;;;;;;;5.88;5.35;;;;;;;6.86;100.00;62708.78;4964956;29;20592;-77
2022/10/05 04:19:14;;;;;;;7.75;5.15;;;;;;;6.86;100.00;62706.25;4968109;29;20425;-78
2022/10/05 04:21:57;;;;;;;6.15;5.53;;;;;;;6.80;100.00;62702.59;4962757;28;20485;-78
2022/10/05 04:24:31;;;;;;;5.60;5.13;;;;;;;6.79;100.00;62701.56;4970278;29;20197;-78
2022/10/05 04:27:01;;;;;;;7.65;6.88;;;;;;;6.76;100.00;62695.94;4971541;28;20225;-78
2022/10/05 04:29:35;;;;;;;7.00;6.40;;;;;;;6.67;100.00;62684.13;4969863;29;20204;-80
2022/10/05 04:32:20;;;;;;;7.40;6.70;;;;;;;6.74;100.00;62691.34;4974245;28;20223;-81
2022/10/05 04:35:10;;;;;;;8.52;6.35;;;;;;;6.76;100.00;62699.00;4963356;29;20288;-78
2022/10/05 04:37:50;;;;;;;7.78;6.78;;;;;;;6.72;100.00;62689.28;4962018;29;20289;-78
2022/10/05 04:40:31;;;;;;;9.02;7.25;;;;;;;6.75;100.00;62689.84;4967726;29;20545;-78
2022/10/05 04:43:08;;;;;;;9.23;6.18;;;;;;;6.79;100.00;62694.50;4967415;29;20437;-77
2022/10/05 04:45:58;;;;;;;9.98;6.05;;;;;;;6.80;100.00;62698.03;4968622;29;20232;-77
2022/10/05 04:48:43;;;;;;;8.05;6.40;;;;;;;6.85;100.00;62702.69;4954991;28;20226;-78
2022/10/05 04:51:25;;;;;;;7.82;6.60;;;;;;;6.89;100.00;62709.88;4968390;29;20200;-79
2022/10/05 04:53:58;;;;;;;8.13;6.47;;;;;;;6.81;100.00;62703.63;4968087;28;20221;-76
2022/10/05 04:56:34;;;;;;;7.10;6.28;;;;;;;6.87;100.00;62709.81;4962568;29;20268;-76
2022/10/05 04:59:23;;;;;;;14.70;7.35;;;;;;;6.88;100.00;62708.84;4963960;29;20232;-77
2022/10/05 05:02:05;;;;;;;11.07;8.52;;;;;;;6.98;100.00;62719.16;4967439;29;20276;-78
2022/10/05 05:05:12;;;;;;;10.98;8.43;;;;;;;7.16;100.00;62737.22;4966350;29;20210;-75
2022/10/05 05:07:47;;;;;;;10.38;8.80;;;;;;;7.33;100.00;62757.28;4968120;28;20225;-77
2022/10/05 05:10:50;;;;;;;8.98;8.07;;;;;;;7.38;100.00;62759.38;4965216;29;20511;-75
2022/10/05 05:13:39;;;;;;;11.07;8.45;;;;;;;7.49;100.00;62771.25;4961334;28;20228;-75
2022/10/05 05:16:10;;;;;;;11.13;7.97;;;;;;;7.51;100.00;62773.31;4959974;29;20385;-76
2022/10/05 05:18:57;;;;;;;11.68;8.00;;;;;;;7.61;100.00;62785.66;4967206;28;20225;-76
2022/10/05 05:21:36;;;;;;;8.68;6.80;;;;;;;7.77;100.00;62797.63;4967093;29;20209;-76
2022/10/05 05:24:10;;;;;;;7.72;6.63;;;;;;;7.96;100.00;62816.72;4961952;29;20331;-75
2022/10/05 05:26:55;;;;;;;8.30;6.72;;;;;;;7.98;100.00;62819.31;4967540;28;20200;-74
2022/10/05 05:29:30;;;;;;;12.23;7.95;;;;;;;8.15;100.00;62841.94;4967027;29;20200;-75
2022/10/05 05:32:06;;;;;;;14.68;7.43;;;;;;;8.18;100.00;62839.97;4964459;29;20217;-76
2022/10/05 05:34:48;;;;;;;11.77;6.97;;;;;;;8.26;100.00;62849.75;4948038;29;20212;-75
2022/10/05 05:37:23;;;;;;;11.75;7.63;;;;;;;8.30;100.00;62856.94;4948010;29;20600;-76
2022/10/05 05:40:00;;;;;;;11.40;7.95;;;;;;;8.34;100.00;62861.06;4946513;29;20256;-75
2022/10/05 05:42:39;;;;;;;15.48;7.57;;;;;;;8.48;100.00;62877.53;4957250;28;20262;-76
2022/10/05 05:45:12;;;;;;;10.88;8.27;;;;;;;8.59;100.00;62891.47;4967007;29;20201;-76
2022/10/05 05:47:46;;;;;;;13.57;8.75;;;;;;;8.78;100.00;62906.53;4966402;28;20453;-74
2022/10/05 05:50:33;;;;;;;12.35;8.88;;;;;;;8.92;100.00;62920.47;4964930;29;20446;-76
2022/10/05 05:53:09;;;;;;;15.25;8.65;;;;;;;8.84;100.00;62912.72;4947462;29;20225;-74
2022/10/05 05:55:41;;;;;;;12.23;8.23;;;;;;;9.12;100.00;62941.16;4965512;29;20236;-76
2022/10/05 05:58:19;;;;;;;14.10;8.90;;;;;;;9.22;100.00;62946.94;4966800;28;20228;-75
2022/10/05 06:00:52;;;;;;;15.77;9.10;;;;;;;9.36;100.00;62965.97;4954388;29;20229;-75
2022/10/05 06:03:22;;;;;;;13.88;9.15;;;;;;;9.45;100.00;62975.28;4947081;29;20401;-75
2022/10/05 06:05:54;;;;;;;10.75;7.85;;;;;;;9.47;100.00;62972.25;4947480;29;20193;-75
2022/10/05 06:08:27;;;;;;;9.85;7.45;;;;;;;9.64;100.00;62994.91;4949525;29;20222;-75
2022/10/05 06:10:59;;;;;;;10.70;7.32;;;;;;;9.75;100.00;63003.25;4950615;29;20209;-75
2022/10/05 06:13:32;;;;;;;12.02;7.75;;;;;;;9.79;100.00;63007.88;4948317;29;20245;-76
2022/10/05 06:16:08;;;;;;;13.20;7.53;;;;;;;9.83;100.00;63009.47;4947534;29;20198;-75
2022/10/05 06:18:39;;;;;;;8.88;7.53;;;;;;;9.90;100.00;63018.75;4955353;29;20252;-74
2022/10/05 06:21:15;;;;;;;12.73;8.07;;;;;;;9.83;100.00;63011.50;4966872;29;20237;-76
2022/10/05 06:23:48;;;;;;;12.93;8.82;;;;;;;9.55;100.00;62985.09;4967732;28;20228;-74
2022/10/05 06:26:27;;;;;;;13.80;8.75;;;;;;;9.76;100.00;62999.19;4967167;29;20193;-76
2022/10/05 06:29:00;;;;;;;13.60;8.05;;;;;;;9.73;100.00;63001.69;4947510;29;20296;-76
2022/10/05 06:32:02;;;;;;;16.00;8.43;;;;;;;9.92;100.00;63018.78;4947636;29;20252;-75
2022/10/05 06:34:50;;;;;;;15.02;8.90;;;;;;;10.08;100.00;63039.91;4947231;29;20240;-76
2022/10/05 06:37:27;;;;;;;14.18;9.98;;;;;;;10.10;100.00;63039.97;4957845;28;20571;-75
2022/10/05 06:40:14;;;;;;;19.95;9.50;;;;;;;10.23;100.00;63055.47;4967032;29;20240;-75
2022/10/05 06:42:58;;;;;;;14.32;9.65;;;;;;;10.04;100.00;63033.75;4966935;28;20253;-75
2022/10/05 06:45:34;;;;;;;19.55;11.10;;;;;;;10.07;100.00;63039.41;4963010;29;20193;-75
2022/10/05 06:48:10;;;;;;;11.93;9.93;;;;;;;10.03;100.00;63032.72;4946739;29;20220;-75
2022/10/05 06:50:43;;;;;;;13.60;10.13;;;;;;;10.18;100.00;63050.78;4947589;29;20205;-75
2022/10/05 06:53:28;;;;;;;13.15;8.75;;;;;;;10.35;100.00;63065.31;4950260;28;20226;-75
2022/10/05 06:56:04;;;;;;;11.80;9.57;;;;;;;10.23;100.00;63053.41;4966504;29;20259;-75
2022/10/05 06:58:45;;;;;;;12.10;9.30;;;;;;;10.43;100.00;63068.50;4966245;28;20220;-76
2022/10/05 07:01:26;;;;;;;9.30;7.47;;;;;;;10.43;100.00;63078.69;4964696;29;20220;-75
2022/10/05 07:04:06;;;;;;;13.80;8.00;;;;;;;10.65;100.00;63096.38;4947394;29;20225;-75
2022/10/05 07:06:37;;;;;;;11.30;8.43;;;;;;;10.35;100.00;63060.25;4946937;29;20261;-77
2022/10/05 07:09:18;;;;;;;7.90;6.95;;;;;;;10.30;100.00;63058.13;4947038;29;20403;-77
2022/10/05 07:11:58;;;;;;;10.23;8.77;;;;;;;10.40;100.00;63071.03;4959864;28;20246;-75
2022/10/05 07:14:43;;;;;;;11.60;8.88;;;;;;;10.61;100.00;63094.25;4967147;29;20259;-76
2022/10/05 07:17:29;;;;;;;12.05;8.35;;;;;;;10.86;100.00;63115.03;4966850;28;20280;-75
2022/10/05 07:20:03;;;;;;;9.23;7.70;;;;;;;11.15;100.00;63148.13;4955969;29;20421;-75
2022/10/05 07:22:50;;;;;;;9.90;6.93;;;;;;;11.34;100.00;63165.25;4948193;29;20236;-76
2022/10/05 07:25:21;;;;;;;8.43;7.57;;;;;;;11.33;100.00;63166.78;4946702;29;20201;-76
2022/10/05 07:27:55;;;;;;;9.10;6.88;;;;;;;11.58;100.00;63194.69;4946470;29;20225;-75
2022/10/05 07:30:23;;;;;;;8.52;7.70;;;;;;;11.53;100.00;63181.88;4946017;29;20231;-76
2022/10/05 07:32:59;;;;;;;12.00;8.57;;;;;;;11.43;100.00;63174.59;4949059;29;20221;-76
2022/10/05 07:38:31;;;;;;;7.18;6.38;;;;;;;11.44;97.71;63175.13;4946368;29;20260;-76
2022/10/05 07:41:04;;;;;;;10.93;6.82;;;;;;;11.62;98.98;63196.31;4946387;29;20248;-75
2022/10/05 07:43:38;;;;;;;17.35;8.50;;;;;;;11.55;100.00;63192.13;4949429;28;20264;-75
2022/10/05 07:46:13;;;;;;;11.48;8.10;;;;;;;11.71;100.00;63208.19;4946389;29;20399;-75
2022/10/05 07:48:57;;;;;;;12.18;7.63;;;;;;;11.90;99.19;63225.34;4947242;29;20563;-75
2022/10/05 07:51:33;;;;;;;7.82;7.07;;;;;;;11.74;98.89;63208.22;4953512;29;20208;-77
2022/10/05 07:54:18;;;;;;;8.60;6.47;;;;;;;11.84;98.74;63218.59;4949402;29;20217;-75
2022/10/05 07:56:49;;;;;;;8.55;6.97;;;;;;;12.08;98.26;63243.47;4947411;29;20193;-75
2022/10/05 07:59:26;;;;;;;6.38;5.78;;;;;;;12.28;94.16;63264.72;4946241;29;20389;-76
2022/10/05 08:02:05;;;;;;;13.20;8.65;;;;;;;12.23;94.96;63261.56;4945054;29;20377;-76
2022/10/05 08:04:43;;;;;;;7.57;6.80;;;;;;;12.19;96.57;63255.38;4946270;29;20447;-75
2022/10/05 08:07:15;;;;;;;6.57;6.07;;;;;;;12.27;96.54;63263.66;4947010;29;20225;-75
2022/10/05 08:09:49;;;;;;;6.95;6.28;;;;;;;12.34;95.94;63265.31;4948209;29;20205;-76
2022/10/05 08:12:30;;;;;;;9.88;6.25;;;;;;;12.62;93.83;63304.56;4963753;28;20260;-75
2022/10/05 08:15:00;;;;;;;6.05;4.63;;;;;;;12.49;92.60;63285.97;4965665;29;20221;-75
2022/10/05 08:17:40;;;;;;;5.28;4.65;;;;;;;12.59;93.08;63301.44;4957466;28;20256;-78
2022/10/05 08:20:28;;;;;;;7.15;4.40;;;;;;;12.78;91.65;63319.13;4947345;29;20464;-75
2022/10/05 08:23:02;;;;;;;4.75;4.13;;;;;;;12.66;90.12;63306.69;4957787;29;20225;-77
2022/10/05 08:25:40;;;;;;;5.03;4.68;;;;;;;12.89;88.35;63326.94;4949268;29;20201;-75
2022/10/05 08:28:13;;;;;;;7.63;5.20;;;;;;;13.05;88.27;63343.53;4955501;29;20256;-76
2022/10/05 08:30:55;;;;;;;7.53;5.53;;;;;;;12.88;89.54;63326.41;4965770;29;20247;-75
2022/10/05 08:33:26;;;;;;;8.75;5.15;;;;;;;12.99;89.50;63342.94;4965555;28;20225;-76
2022/10/05 08:36:04;;;;;;;5.90;5.20;;;;;;;12.99;89.60;63340.38;4960797;29;20199;-76
2022/10/05 08:38:33;;;;;;;7.25;4.80;;;;;;;13.00;89.60;63338.31;4966014;28;20276;-76
2022/10/05 08:41:39;;;;;;;8.18;4.97;;;;;;;12.95;88.53;63336.22;4968200;29;20237;-76
2022/10/05 08:44:44;;;;;;;4.43;3.97;;;;;;;13.02;86.80;63338.41;4949994;29;20251;-75
2022/10/05 08:47:31;;;;;;;5.93;5.30;;;;;;;12.99;87.31;63342.94;4935306;28;20220;-75
2022/10/05 08:50:30;;;;;;;7.60;5.28;;;;;;;13.00;89.53;63341.41;4969200;29;20247;-75
2022/10/05 08:53:20;;;;;;;6.45;5.85;;;;;;;12.86;86.88;63324.34;4971268;28;20232;-76
2022/10/05 08:56:02;;;;;;;5.53;4.97;;;;;;;13.05;86.03;63341.50;4964541;29;20204;-75
2022/10/05 08:58:43;;;;;;;7.07;5.43;;;;;;;13.16;86.94;63358.03;4971442;28;20268;-75
2022/10/05 09:01:20;;;;;;;5.97;5.38;;;;;;;13.39;85.14;63381.88;4969047;29;20249;-76
2022/10/05 09:04:22;;;;;;;5.68;5.13;;;;;;;13.31;83.91;63365.91;4954897;28;20518;-76
2022/10/05 09:07:13;;;;;;;5.53;4.97;;;;;;;13.21;82.61;63365.25;4948393;29;20197;-74
2022/10/05 09:10:30;;;;;;;5.72;5.07;;;;;;;13.31;81.06;63368.47;4949291;29;20213;-75
2022/10/05 09:13:34;;;;;;;11.05;5.18;;;;;;;13.60;80.09;63403.69;4962635;28;20236;-74
2022/10/05 09:16:25;;;;;;;5.15;4.13;;;;;;;13.91;73.40;63438.41;4972765;29;20260;-74
2022/10/05 09:19:24;;;;;;;4.88;3.22;;;;;;;14.07;66.46;63449.38;4967652;28;20275;-77
2022/10/05 09:21:57;;;;;;;7.82;3.00;;;;;;;13.63;64.65;63404.22;4965269;28;20299;-74
2022/10/05 09:24:28;;;;;;;4.97;2.42;;;;;;;13.66;61.52;63407.34;4968076;29;20244;-75
2022/10/05 09:27:08;;;;;;;3.22;2.55;;;;;;;13.85;60.23;63429.13;4965254;29;20323;-74
2022/10/05 09:30:17;;;;;;;4.80;3.42;;;;;;;14.18;60.75;63462.84;4967788;29;20393;-76
2022/10/05 09:33:12;;;;;;;3.35;3.10;;;;;;;14.04;59.76;63448.31;4962402;28;20280;-75
2022/10/05 09:36:21;;;;;;;4.72;2.97;;;;;;;14.03;60.43;63447.78;4968035;29;20537;-76
2022/10/05 09:39:16;;;;;;;3.78;3.22;;;;;;;13.74;61.66;63420.25;4949159;29;20552;-76
2022/10/05 09:42:10;;;;;;;3.28;3.03;;;;;;;14.00;60.29;63446.72;4948249;29;20237;-75
2022/10/05 09:45:00;;;;;;;3.50;2.33;;;;;;;13.88;61.24;63430.19;4948067;29;20260;-75
2022/10/05 09:47:52;;;;;;;5.40;4.15;;;;;;;13.88;61.18;63432.75;4952739;29;20458;-76
2022/10/05 09:50:57;;;;;;;3.55;3.25;;;;;;;14.20;63.32;63462.38;4966785;29;20212;-75
2022/10/05 09:53:53;;;;;;;3.17;2.97;;;;;;;14.05;59.11;63446.81;4967110;29;20224;-76
2022/10/05 09:56:48;;;;;;;2.88;2.67;;;;;;;14.43;59.06;63489.34;4955168;29;20276;-75
2022/10/05 09:59:50;;;;;;;2.78;2.67;;;;;;;14.49;56.32;63490.47;4960283;28;20213;-75
2022/10/05 10:02:30;;;;;;;2.33;2.22;;;;;;;14.46;57.34;63495.03;4948435;29;20231;-75
2022/10/05 10:05:22;;;;;;;2.92;2.20;;;;;;;14.66;56.87;63513.25;4965051;29;20209;-75
2022/10/05 10:08:05;;;;;;;2.22;2.10;;;;;;;14.53;54.19;63494.59;4967007;29;20231;-76
2022/10/05 10:11:07;;;;;;;4.65;1.88;;;;;;;14.33;51.93;63476.41;4967174;29;20205;-76
2022/10/05 10:13:54;;;;;;;1.75;1.65;;;;;;;14.45;52.43;63486.31;4958133;29;20454;-76
2022/10/05 10:16:43;;;;;;;2.60;1.50;;;;;;;14.61;51.85;63504.97;4967306;29;20390;-76
2022/10/05 10:19:31;;;;;;;3.83;1.58;;;;;;;14.50;53.41;63499.19;4949144;29;20206;-76
2022/10/05 10:22:54;;;;;;;2.22;2.05;;;;;;;14.65;52.48;63514.75;4951207;29;20580;-75
2022/10/05 10:25:43;;;;;;;2.47;2.38;;;;;;;14.74;53.27;63515.91;4907684;29;20210;-76
2022/10/05 10:28:48;;;;;;;5.57;3.55;;;;;;;14.91;53.07;63541.78;4966051;28;20532;-75
2022/10/05 10:31:36;;;;;;;8.10;4.40;;;;;;;14.99;53.67;63547.53;4935195;29;20211;-75
2022/10/05 10:34:42;;;;;;;3.10;2.65;;;;;;;15.04;53.00;63557.84;4961620;29;20501;-75
2022/10/05 10:37:33;;;;;;;2.22;2.13;;;;;;;15.16;50.39;63559.00;4952598;28;20223;-76
2022/10/05 10:40:22;;;;;;;2.17;1.98;;;;;;;15.31;50.55;63580.25;4963037;29;20201;-76
2022/10/05 10:43:09;;;;;;;7.35;2.35;;;;;;;15.51;51.03;63597.97;4965999;28;20224;-76
2022/10/05 10:45:49;;;;;;;2.58;2.45;;;;;;;15.86;53.22;63634.88;4965238;29;20240;-76
2022/10/05 10:48:50;;;;;;;2.35;2.15;;;;;;;15.85;50.81;63633.31;4962714;28;20224;-76
2022/10/05 10:51:31;;;;;;;1.70;1.70;;;;;;;15.49;50.24;63596.44;4947241;29;20229;-77
2022/10/05 10:54:28;;;;;;;2.55;2.35;;;;;;;15.10;51.46;63555.34;4951813;29;20223;-76
2022/10/05 10:57:02;;;;;;;7.70;2.00;;;;;;;15.26;49.88;63572.50;4967390;28;20251;-76
2022/10/05 11:00:01;;;;;;;2.75;2.55;;;;;;;15.13;50.73;63561.56;4954246;29;20259;-75
2022/10/05 11:03:03;;;;;;;4.13;2.17;;;;;;;15.16;49.28;63559.00;4964118;28;20445;-77
2022/10/05 11:05:51;;;;;;;3.38;2.00;;;;;;;15.13;50.87;63559.00;4926106;29;20205;-76
2022/10/05 11:08:50;;;;;;;3.42;2.15;;;;;;;15.47;50.63;63601.53;4958635;29;20449;-77
2022/10/05 11:11:50;;;;;;;2.60;1.80;;;;;;;15.28;48.93;63579.72;4968725;28;20203;-76
2022/10/05 11:14:36;;;;;;;2.08;1.90;;;;;;;15.57;48.45;63607.31;4962483;29;20206;-76
2022/10/05 11:17:36;;;;;;;2.05;1.92;;;;;;;15.74;49.40;63621.88;4960750;29;20338;-77
2022/10/05 11:20:35;;;;;;;3.35;1.80;;;;;;;15.97;47.03;63646.31;4947292;29;20217;-76
2022/10/05 11:23:44;;;;;;;1.95;1.40;;;;;;;16.19;46.53;63668.69;4961046;29;20250;-76
2022/10/05 11:26:24;;;;;;;3.08;1.83;;;;;;;16.29;46.27;63681.66;4918090;29;20258;-75
2022/10/05 11:29:28;;;;;;;2.85;1.60;;;;;;;16.46;47.89;63698.81;4949606;29;20220;-75
2022/10/05 11:32:28;;;;;;;1.58;1.50;;;;;;;16.47;46.32;63697.31;4963852;28;20214;-76
2022/10/05 11:35:18;;;;;;;2.35;1.50;;;;;;;16.59;45.16;63715.44;4942900;29;20263;-76
2022/10/05 11:38:08;;;;;;;3.53;1.75;;;;;;;16.13;44.80;63662.94;4946769;29;20287;-77
2022/10/05 11:40:56;;;;;;;2.40;2.20;;;;;;;16.00;44.23;63649.44;4938681;29;20542;-76
2022/10/05 11:44:15;;;;;;;1.50;1.40;;;;;;;16.15;43.88;63670.16;4963988;29;20457;-75
2022/10/05 11:46:52;;;;;;;1.15;1.10;;;;;;;16.07;42.13;63653.63;4892412;29;20210;-75
2022/10/05 11:49:35;;;;;;;3.85;0.98;;;;;;;16.24;43.19;63676.44;4942667;29;20220;-76
2022/10/05 11:52:10;;;;;;;1.35;1.08;;;;;;;16.24;41.99;63676.44;4962186;29;20290;-75
2022/10/05 11:54:58;;;;;;;0.85;0.82;;;;;;;16.42;43.09;63697.75;4960789;29;20274;-75
2022/10/05 11:57:33;;;;;;;0.90;0.90;;;;;;;16.10;42.69;63661.91;4947067;29;20224;-77
2022/10/05 12:00:11;;;;;;;1.52;1.30;;;;;;;16.19;42.35;63671.78;4956943;29;20200;-75
2022/10/05 12:02:53;;;;;;;1.85;1.55;;;;;;;16.33;42.07;63685.28;4960004;29;20235;-75
2022/10/05 12:05:24;;;;;;;2.22;1.15;;;;;;;16.23;42.78;63670.28;4965004;29;20211;-74
2022/10/05 12:08:16;;;;;;;2.47;1.58;;;;;;;16.15;44.63;63664.53;4966128;29;20271;-75
2022/10/05 12:10:49;;;;;;;1.25;1.20;;;;;;;16.11;42.75;63666.03;4956291;29;20200;-75
2022/10/05 12:13:28;;;;;;;2.35;1.13;;;;;;;16.28;43.51;63685.75;4964351;28;20447;-76
2022/10/05 12:16:03;;;;;;;1.35;1.35;;;;;;;16.54;42.08;63705.09;4967797;29;20499;-74
2022/10/05 12:18:56;;;;;;;1.30;1.20;;;;;;;16.34;42.90;63689.44;4963228;28;20216;-76
2022/10/05 12:21:33;;;;;;;1.50;1.40;;;;;;;16.56;42.19;63709.75;4950500;29;20232;-76
2022/10/05 12:24:07;;;;;;;1.17;1.08;;;;;;;16.59;41.29;63709.78;4966888;29;20226;-76
2022/10/05 12:26:39;;;;;;;2.05;1.95;;;;;;;16.39;41.96;63692.06;4970837;29;20255;-76
2022/10/05 12:29:13;;;;;;;1.42;1.30;;;;;;;16.49;40.68;63699.91;4969338;29;20200;-75
2022/10/05 12:31:50;;;;;;;1.00;0.88;;;;;;;16.38;41.54;63691.00;4970551;29;20432;-78
2022/10/05 12:34:26;;;;;;;3.22;1.38;;;;;;;16.52;41.10;63703.03;4970242;29;20195;-75
2022/10/05 12:36:58;;;;;;;1.80;1.27;;;;;;;16.62;41.59;63712.91;4969011;29;20204;-74
2022/10/05 12:39:36;;;;;;;1.30;1.20;;;;;;;16.84;41.68;63741.47;4960351;29;20201;-76